sensor_id;sensor_type;location;lat;lon;timestamp;pressure;altitude;pressure_sealevel;temperature;humidity
30856;BME280;17570;0.000;0.000;2023-02-04T00:02:21;96730.16;;;11.74;40.20
30856;BME280;17570;0.000;0.000;2023-02-04T00:04:50;96728.66;;;11.71;40.34
30856;BME280;17570;0.000;0.000;2023-02-04T00:07:17;96721.28;;;11.77;40.50
30856;BME280;17570;0.000;0.000;2023-02-04T00:09:44;96726.73;;;11.73;40.37
30856;BME280;17570;0.000;0.000;2023-02-04T00:12:12;96712.77;;;11.74;40.79
30856;BME280;17570;0.000;0.000;2023-02-04T00:14:40;96711.69;;;11.77;40.44
30856;BME280;17570;0.000;0.000;2023-02-04T00:17:07;96705.83;;;11.75;40.42
30856;BME280;17570;0.000;0.000;2023-02-04T00:19:42;96704.16;;;11.74;40.96
30856;BME280;17570;0.000;0.000;2023-02-04T00:22:07;96696.91;;;11.78;41.03
30856;BME280;17570;0.000;0.000;2023-02-04T00:24:35;96690.08;;;11.77;41.31
30856;BME280;17570;0.000;0.000;2023-02-04T00:27:03;96691.30;;;11.72;41.46
30856;BME280;17570;0.000;0.000;2023-02-04T00:29:30;96685.14;;;11.73;41.37
30856;BME280;17570;0.000;0.000;2023-02-04T00:31:58;96681.16;;;11.69;41.64
30856;BME280;17570;0.000;0.000;2023-02-04T00:34:26;96677.22;;;11.75;41.82
30856;BME280;17570;0.000;0.000;2023-02-04T00:36:54;96669.54;;;11.73;41.83
30856;BME280;17570;0.000;0.000;2023-02-04T00:39:21;96663.92;;;11.78;41.83
30856;BME280;17570;0.000;0.000;2023-02-04T00:41:49;96657.77;;;11.79;41.87
30856;BME280;17570;0.000;0.000;2023-02-04T00:44:16;96655.45;;;11.76;42.28
30856;BME280;17570;0.000;0.000;2023-02-04T00:46:44;96648.18;;;11.80;41.98
30856;BME280;17570;0.000;0.000;2023-02-04T00:49:13;96645.47;;;11.71;42.35
30856;BME280;17570;0.000;0.000;2023-02-04T00:51:40;96631.24;;;11.66;42.77
30856;BME280;17570;0.000;0.000;2023-02-04T00:54:10;96634.37;;;11.69;42.65
30856;BME280;17570;0.000;0.000;2023-02-04T00:56:37;96637.27;;;11.66;42.98
30856;BME280;17570;0.000;0.000;2023-02-04T00:59:04;96629.98;;;11.70;42.90
30856;BME280;17570;0.000;0.000;2023-02-04T01:01:32;96621.37;;;11.69;43.10
30856;BME280;17570;0.000;0.000;2023-02-04T01:03:59;96606.17;;;11.74;42.79
30856;BME280;17570;0.000;0.000;2023-02-04T01:06:27;96609.33;;;11.78;42.73
30856;BME280;17570;0.000;0.000;2023-02-04T01:08:55;96596.33;;;11.78;42.72
30856;BME280;17570;0.000;0.000;2023-02-04T01:11:22;96584.02;;;11.80;42.56
30856;BME280;17570;0.000;0.000;2023-02-04T01:13:50;96570.87;;;11.82;42.40
30856;BME280;17570;0.000;0.000;2023-02-04T01:16:18;96570.47;;;11.77;42.84
30856;BME280;17570;0.000;0.000;2023-02-04T01:18:46;96555.54;;;11.79;42.58
30856;BME280;17570;0.000;0.000;2023-02-04T01:21:13;96549.82;;;11.75;42.71
30856;BME280;17570;0.000;0.000;2023-02-04T01:23:41;96539.69;;;11.72;42.83
30856;BME280;17570;0.000;0.000;2023-02-04T01:26:09;96531.34;;;11.68;43.14
30856;BME280;17570;0.000;0.000;2023-02-04T01:28:36;96524.91;;;11.72;43.01
30856;BME280;17570;0.000;0.000;2023-02-04T01:31:04;96514.78;;;11.69;43.19
30856;BME280;17570;0.000;0.000;2023-02-04T01:33:31;96512.59;;;11.65;43.23
30856;BME280;17570;0.000;0.000;2023-02-04T01:35:59;96499.48;;;11.66;43.39
30856;BME280;17570;0.000;0.000;2023-02-04T01:38:28;96492.47;;;11.77;43.04
30856;BME280;17570;0.000;0.000;2023-02-04T01:40:56;96497.67;;;11.77;43.04
30856;BME280;17570;0.000;0.000;2023-02-04T01:43:24;96487.82;;;11.80;42.60
30856;BME280;17570;0.000;0.000;2023-02-04T01:45:51;96482.34;;;11.83;42.30
30856;BME280;17570;0.000;0.000;2023-02-04T01:48:19;96475.36;;;11.84;42.49
30856;BME280;17570;0.000;0.000;2023-02-04T01:50:48;96477.14;;;11.83;42.49
30856;BME280;17570;0.000;0.000;2023-02-04T01:53:18;96472.22;;;11.80;42.42
30856;BME280;17570;0.000;0.000;2023-02-04T01:55:45;96472.48;;;11.77;42.62
30856;BME280;17570;0.000;0.000;2023-02-04T01:58:13;96470.31;;;11.82;42.54
30856;BME280;17570;0.000;0.000;2023-02-04T02:00:41;96461.81;;;11.80;42.56
30856;BME280;17570;0.000;0.000;2023-02-04T02:03:09;96462.52;;;11.82;42.14
30856;BME280;17570;0.000;0.000;2023-02-04T02:05:42;96455.91;;;11.88;42.09
30856;BME280;17570;0.000;0.000;2023-02-04T02:08:09;96456.88;;;11.87;41.88
30856;BME280;17570;0.000;0.000;2023-02-04T02:10:37;96454.28;;;11.87;41.59
30856;BME280;17570;0.000;0.000;2023-02-04T02:13:06;96446.20;;;11.90;41.33
30856;BME280;17570;0.000;0.000;2023-02-04T02:15:36;96449.32;;;11.93;40.77
30856;BME280;17570;0.000;0.000;2023-02-04T02:18:04;96438.64;;;11.96;40.75
30856;BME280;17570;0.000;0.000;2023-02-04T02:20:34;96444.23;;;12.02;40.66
30856;BME280;17570;0.000;0.000;2023-02-04T02:25:48;96446.28;;;12.08;40.29
30856;BME280;17570;0.000;0.000;2023-02-04T02:28:17;96440.97;;;11.99;40.26
30856;BME280;17570;0.000;0.000;2023-02-04T02:30:45;96435.45;;;12.03;40.34
30856;BME280;17570;0.000;0.000;2023-02-04T02:33:15;96429.98;;;12.06;40.16
30856;BME280;17570;0.000;0.000;2023-02-04T02:35:43;96437.62;;;12.07;40.38
30856;BME280;17570;0.000;0.000;2023-02-04T02:38:14;96430.79;;;12.06;40.69
30856;BME280;17570;0.000;0.000;2023-02-04T02:40:42;96431.22;;;12.02;40.85
30856;BME280;17570;0.000;0.000;2023-02-04T02:43:13;96432.86;;;12.03;40.89
30856;BME280;17570;0.000;0.000;2023-02-04T02:45:41;96437.62;;;12.07;41.08
30856;BME280;17570;0.000;0.000;2023-02-04T02:48:10;96444.34;;;12.10;41.49
30856;BME280;17570;0.000;0.000;2023-02-04T02:50:38;96449.97;;;12.05;41.77
30856;BME280;17570;0.000;0.000;2023-02-04T02:53:15;96446.44;;;11.96;42.03
30856;BME280;17570;0.000;0.000;2023-02-04T02:55:38;96456.03;;;11.96;42.03
30856;BME280;17570;0.000;0.000;2023-02-04T03:00:55;96447.27;;;11.97;42.20
30856;BME280;17570;0.000;0.000;2023-02-04T03:03:28;96447.03;;;11.81;42.96
30856;BME280;17570;0.000;0.000;2023-02-04T03:05:57;96444.03;;;11.85;42.90
30856;BME280;17570;0.000;0.000;2023-02-04T03:08:25;96450.33;;;11.83;42.80
30856;BME280;17570;0.000;0.000;2023-02-04T03:10:52;96445.82;;;11.85;42.81
30856;BME280;17570;0.000;0.000;2023-02-04T03:13:20;96441.44;;;11.85;42.81
30856;BME280;17570;0.000;0.000;2023-02-04T03:15:48;96453.86;;;11.82;42.91
30856;BME280;17570;0.000;0.000;2023-02-04T03:18:16;96454.14;;;11.79;43.10
30856;BME280;17570;0.000;0.000;2023-02-04T03:20:45;96462.09;;;11.87;42.78
30856;BME280;17570;0.000;0.000;2023-02-04T03:23:13;96455.38;;;11.84;42.46
30856;BME280;17570;0.000;0.000;2023-02-04T03:25:41;96461.12;;;11.88;42.27
30856;BME280;17570;0.000;0.000;2023-02-04T03:28:08;96456.07;;;11.86;42.25
30856;BME280;17570;0.000;0.000;2023-02-04T03:30:36;96453.20;;;11.89;42.09
30856;BME280;17570;0.000;0.000;2023-02-04T03:33:03;96450.29;;;11.92;41.82
30856;BME280;17570;0.000;0.000;2023-02-04T03:35:31;96444.12;;;11.93;41.89
30856;BME280;17570;0.000;0.000;2023-02-04T03:37:58;96441.83;;;11.90;41.63
30856;BME280;17570;0.000;0.000;2023-02-04T03:40:26;96438.68;;;11.87;42.20
30856;BME280;17570;0.000;0.000;2023-02-04T03:42:55;96448.93;;;11.88;42.26
30856;BME280;17570;0.000;0.000;2023-02-04T03:45:22;96433.63;;;11.85;42.25
30856;BME280;17570;0.000;0.000;2023-02-04T03:47:50;96421.03;;;11.81;42.74
30856;BME280;17570;0.000;0.000;2023-02-04T03:50:17;96411.72;;;11.78;42.65
30856;BME280;17570;0.000;0.000;2023-02-04T03:52:45;96410.75;;;11.79;42.92
30856;BME280;17570;0.000;0.000;2023-02-04T03:55:14;96412.14;;;11.83;42.80
30856;BME280;17570;0.000;0.000;2023-02-04T03:57:41;96408.56;;;11.84;42.73
30856;BME280;17570;0.000;0.000;2023-02-04T04:00:09;96401.16;;;11.80;42.96
30856;BME280;17570;0.000;0.000;2023-02-04T04:02:40;96401.73;;;11.83;42.95
30856;BME280;17570;0.000;0.000;2023-02-04T04:05:08;96396.66;;;11.82;43.12
30856;BME280;17570;0.000;0.000;2023-02-04T04:07:35;96394.20;;;11.90;43.14
30856;BME280;17570;0.000;0.000;2023-02-04T04:10:03;96395.30;;;11.87;42.99
30856;BME280;17570;0.000;0.000;2023-02-04T04:12:30;96395.14;;;11.89;43.12
30856;BME280;17570;0.000;0.000;2023-02-04T04:14:58;96390.78;;;11.89;43.11
30856;BME280;17570;0.000;0.000;2023-02-04T04:17:25;96390.47;;;11.92;42.94
30856;BME280;17570;0.000;0.000;2023-02-04T04:19:53;96386.91;;;11.93;43.13
30856;BME280;17570;0.000;0.000;2023-02-04T04:22:20;96393.37;;;11.80;43.56
30856;BME280;17570;0.000;0.000;2023-02-04T04:24:48;96398.86;;;11.86;43.94
30856;BME280;17570;0.000;0.000;2023-02-04T04:27:15;96393.52;;;11.78;43.99
30856;BME280;17570;0.000;0.000;2023-02-04T04:29:43;96409.98;;;11.69;44.27
30856;BME280;17570;0.000;0.000;2023-02-04T04:32:10;96398.09;;;11.66;44.66
30856;BME280;17570;0.000;0.000;2023-02-04T04:34:38;96385.33;;;11.73;44.50
30856;BME280;17570;0.000;0.000;2023-02-04T04:37:05;96386.69;;;11.77;44.38
30856;BME280;17570;0.000;0.000;2023-02-04T04:39:32;96373.53;;;11.79;44.28
30856;BME280;17570;0.000;0.000;2023-02-04T04:42:00;96375.73;;;11.83;44.40
30856;BME280;17570;0.000;0.000;2023-02-04T04:44:27;96366.43;;;11.81;44.49
30856;BME280;17570;0.000;0.000;2023-02-04T04:46:55;96372.34;;;11.73;44.63
30856;BME280;17570;0.000;0.000;2023-02-04T04:49:22;96368.77;;;11.74;44.42
30856;BME280;17570;0.000;0.000;2023-02-04T04:51:50;96359.49;;;11.71;44.53
30856;BME280;17570;0.000;0.000;2023-02-04T04:54:17;96370.98;;;11.69;44.59
30856;BME280;17570;0.000;0.000;2023-02-04T04:56:45;96363.88;;;11.71;44.21
30856;BME280;17570;0.000;0.000;2023-02-04T04:59:12;96355.77;;;11.74;44.41
30856;BME280;17570;0.000;0.000;2023-02-04T05:01:40;96363.19;;;11.69;44.44
30856;BME280;17570;0.000;0.000;2023-02-04T05:04:07;96361.70;;;11.66;44.59
30856;BME280;17570;0.000;0.000;2023-02-04T05:06:35;96372.92;;;11.67;45.06
30856;BME280;17570;0.000;0.000;2023-02-04T05:09:02;96369.78;;;11.63;45.02
30856;BME280;17570;0.000;0.000;2023-02-04T05:11:30;96359.81;;;11.59;45.13
30856;BME280;17570;0.000;0.000;2023-02-04T05:13:57;96376.38;;;11.58;45.35
30856;BME280;17570;0.000;0.000;2023-02-04T05:16:24;96381.69;;;11.56;45.45
30856;BME280;17570;0.000;0.000;2023-02-04T05:18:52;96382.42;;;11.48;45.71
30856;BME280;17570;0.000;0.000;2023-02-04T05:21:19;96392.39;;;11.53;45.55
30856;BME280;17570;0.000;0.000;2023-02-04T05:23:47;96392.94;;;11.57;45.59
30856;BME280;17570;0.000;0.000;2023-02-04T05:26:14;96388.41;;;11.59;45.55
30856;BME280;17570;0.000;0.000;2023-02-04T05:28:42;96395.66;;;11.55;45.68
30856;BME280;17570;0.000;0.000;2023-02-04T05:31:09;96407.30;;;11.51;45.69
30856;BME280;17570;0.000;0.000;2023-02-04T05:33:37;96401.28;;;11.50;45.51
30856;BME280;17570;0.000;0.000;2023-02-04T05:36:04;96405.81;;;11.48;45.72
30856;BME280;17570;0.000;0.000;2023-02-04T05:38:32;96408.69;;;11.45;45.71
30856;BME280;17570;0.000;0.000;2023-02-04T05:40:59;96413.61;;;11.48;45.67
30856;BME280;17570;0.000;0.000;2023-02-04T05:43:32;96408.66;;;11.55;45.48
30856;BME280;17570;0.000;0.000;2023-02-04T05:45:56;96414.55;;;11.57;45.50
30856;BME280;17570;0.000;0.000;2023-02-04T05:48:23;96408.53;;;11.57;45.56
30856;BME280;17570;0.000;0.000;2023-02-04T05:50:51;96412.38;;;11.53;45.60
30856;BME280;17570;0.000;0.000;2023-02-04T05:53:18;96422.64;;;11.44;45.76
30856;BME280;17570;0.000;0.000;2023-02-04T05:55:46;96419.92;;;11.36;46.16
30856;BME280;17570;0.000;0.000;2023-02-04T05:58:13;96433.87;;;11.35;46.11
30856;BME280;17570;0.000;0.000;2023-02-04T06:00:41;96437.98;;;11.38;46.10
30856;BME280;17570;0.000;0.000;2023-02-04T06:03:08;96441.41;;;11.38;45.93
30856;BME280;17570;0.000;0.000;2023-02-04T06:05:36;96434.27;;;11.40;45.75
30856;BME280;17570;0.000;0.000;2023-02-04T06:08:03;96441.41;;;11.38;45.75
30856;BME280;17570;0.000;0.000;2023-02-04T06:10:31;96455.63;;;11.34;45.89
30856;BME280;17570;0.000;0.000;2023-02-04T06:12:58;96476.41;;;11.34;45.82
30856;BME280;17570;0.000;0.000;2023-02-04T06:15:25;96479.02;;;11.34;45.68
30856;BME280;17570;0.000;0.000;2023-02-04T06:17:53;96479.55;;;11.28;45.87
30856;BME280;17570;0.000;0.000;2023-02-04T06:20:20;96479.56;;;10.99;46.39
30856;BME280;17570;0.000;0.000;2023-02-04T06:22:48;96470.69;;;10.92;46.54
30856;BME280;17570;0.000;0.000;2023-02-04T06:25:17;96457.56;;;10.93;46.33
30856;BME280;17570;0.000;0.000;2023-02-04T06:27:47;96457.01;;;10.90;46.42
30856;BME280;17570;0.000;0.000;2023-02-04T06:30:14;96454.30;;;11.01;46.25
30856;BME280;17570;0.000;0.000;2023-02-04T06:32:44;96452.72;;;11.57;44.74
30856;BME280;17570;0.000;0.000;2023-02-04T06:35:11;96449.36;;;11.74;44.32
30856;BME280;17570;0.000;0.000;2023-02-04T06:37:42;96442.25;;;11.86;44.84
30856;BME280;17570;0.000;0.000;2023-02-04T06:40:10;96445.94;;;11.83;45.19
30856;BME280;17570;0.000;0.000;2023-02-04T06:42:38;96437.33;;;11.83;45.13
30856;BME280;17570;0.000;0.000;2023-02-04T06:45:06;96428.87;;;11.71;45.33
30856;BME280;17570;0.000;0.000;2023-02-04T06:47:33;96432.55;;;11.68;45.57
30856;BME280;17570;0.000;0.000;2023-02-04T06:50:01;96423.55;;;11.63;45.49
30856;BME280;17570;0.000;0.000;2023-02-04T06:52:31;96431.23;;;11.55;45.75
30856;BME280;17570;0.000;0.000;2023-02-04T06:54:58;96426.30;;;11.52;45.88
30856;BME280;17570;0.000;0.000;2023-02-04T06:57:25;96420.59;;;11.48;45.96
30856;BME280;17570;0.000;0.000;2023-02-04T06:59:53;96423.45;;;11.45;45.95
30856;BME280;17570;0.000;0.000;2023-02-04T07:02:20;96418.92;;;11.47;45.95
30856;BME280;17570;0.000;0.000;2023-02-04T07:04:49;96434.27;;;11.40;46.14
30856;BME280;17570;0.000;0.000;2023-02-04T07:07:17;96434.81;;;11.44;46.27
30856;BME280;17570;0.000;0.000;2023-02-04T07:09:44;96443.16;;;11.47;46.24
30856;BME280;17570;0.000;0.000;2023-02-04T07:12:12;96437.39;;;11.54;46.15
30856;BME280;17570;0.000;0.000;2023-02-04T07:14:39;96426.42;;;11.60;45.68
30856;BME280;17570;0.000;0.000;2023-02-04T07:17:06;96438.06;;;11.56;45.82
30856;BME280;17570;0.000;0.000;2023-02-04T07:19:36;96433.83;;;11.55;45.63
30856;BME280;17570;0.000;0.000;2023-02-04T07:22:04;96438.36;;;11.53;45.95
30856;BME280;17570;0.000;0.000;2023-02-04T07:24:31;96434.52;;;11.57;45.68
30856;BME280;17570;0.000;0.000;2023-02-04T07:26:59;96436.03;;;11.49;45.69
30856;BME280;17570;0.000;0.000;2023-02-04T07:29:27;96439.17;;;11.53;45.77
30856;BME280;17570;0.000;0.000;2023-02-04T07:31:55;96433.98;;;11.53;45.90
30856;BME280;17570;0.000;0.000;2023-02-04T07:34:22;96432.47;;;11.50;46.17
30856;BME280;17570;0.000;0.000;2023-02-04T07:36:50;96423.43;;;11.55;46.18
30856;BME280;17570;0.000;0.000;2023-02-04T07:39:17;96421.38;;;11.58;46.02
30856;BME280;17570;0.000;0.000;2023-02-04T07:41:45;96415.91;;;11.61;45.95
30856;BME280;17570;0.000;0.000;2023-02-04T07:44:12;96408.23;;;11.60;46.26
30856;BME280;17570;0.000;0.000;2023-02-04T07:46:40;96406.17;;;11.63;45.87
30856;BME280;17570;0.000;0.000;2023-02-04T07:49:08;96410.41;;;11.64;45.76
30856;BME280;17570;0.000;0.000;2023-02-04T07:51:35;96402.33;;;11.67;45.90
30856;BME280;17570;0.000;0.000;2023-02-04T07:54:02;96395.07;;;11.71;46.25
30856;BME280;17570;0.000;0.000;2023-02-04T07:56:30;96405.05;;;11.75;46.17
30856;BME280;17570;0.000;0.000;2023-02-04T07:58:57;96408.30;;;11.78;45.85
30856;BME280;17570;0.000;0.000;2023-02-04T08:01:25;96401.32;;;11.78;45.44
30856;BME280;17570;0.000;0.000;2023-02-04T08:03:52;96405.43;;;11.81;45.00
30856;BME280;17570;0.000;0.000;2023-02-04T08:06:20;96401.16;;;11.80;44.81
30856;BME280;17570;0.000;0.000;2023-02-04T08:08:48;96402.70;;;11.82;44.29
30856;BME280;17570;0.000;0.000;2023-02-04T08:11:17;96400.92;;;11.83;45.19
30856;BME280;17570;0.000;0.000;2023-02-04T08:13:44;96401.05;;;11.81;45.23
30856;BME280;17570;0.000;0.000;2023-02-04T08:16:12;96402.14;;;11.79;45.44
30856;BME280;17570;0.000;0.000;2023-02-04T08:18:39;96402.95;;;11.79;45.28
30856;BME280;17570;0.000;0.000;2023-02-04T08:21:06;96405.97;;;11.84;45.22
30856;BME280;17570;0.000;0.000;2023-02-04T08:23:34;96399.14;;;11.83;44.91
30856;BME280;17570;0.000;0.000;2023-02-04T08:26:03;96405.43;;;11.81;45.10
30856;BME280;17570;0.000;0.000;2023-02-04T08:28:31;96416.92;;;11.78;44.63
30856;BME280;17570;0.000;0.000;2023-02-04T08:30:58;96409.81;;;11.80;44.88
30856;BME280;17570;0.000;0.000;2023-02-04T08:33:26;96413.11;;;11.82;44.26
30856;BME280;17570;0.000;0.000;2023-02-04T08:35:53;96401.86;;;11.82;44.52
30856;BME280;17570;0.000;0.000;2023-02-04T08:38:21;96391.06;;;11.86;44.04
30856;BME280;17570;0.000;0.000;2023-02-04T08:40:48;96395.98;;;11.89;44.00
30856;BME280;17570;0.000;0.000;2023-02-04T08:43:16;96397.46;;;11.92;43.85
30856;BME280;17570;0.000;0.000;2023-02-04T08:45:43;96391.17;;;11.94;43.87
30856;BME280;17570;0.000;0.000;2023-02-04T08:48:11;96398.54;;;11.99;43.07
30856;BME280;17570;0.000;0.000;2023-02-04T08:50:38;96400.98;;;12.00;42.04
30856;BME280;17570;0.000;0.000;2023-02-04T08:53:06;96400.70;;;12.04;42.56
30856;BME280;17570;0.000;0.000;2023-02-04T08:55:33;96400.55;;;12.05;42.75
30856;BME280;17570;0.000;0.000;2023-02-04T08:58:01;96397.95;;;12.05;42.36
30856;BME280;17570;0.000;0.000;2023-02-04T09:00:29;96395.73;;;12.10;42.11
30856;BME280;17570;0.000;0.000;2023-02-04T09:02:56;96394.20;;;12.17;42.06
30856;BME280;17570;0.000;0.000;2023-02-04T09:05:24;96408.96;;;12.17;42.34
30856;BME280;17570;0.000;0.000;2023-02-04T09:07:51;96404.73;;;12.16;42.07
30856;BME280;17570;0.000;0.000;2023-02-04T09:10:18;96408.67;;;12.20;42.43
30856;BME280;17570;0.000;0.000;2023-02-04T09:12:46;96414.04;;;12.18;42.61
30856;BME280;17570;0.000;0.000;2023-02-04T09:15:13;96418.11;;;12.21;43.04
30856;BME280;17570;0.000;0.000;2023-02-04T09:17:41;96423.20;;;12.22;42.88
30856;BME280;17570;0.000;0.000;2023-02-04T09:20:09;96424.13;;;12.21;42.89
30856;BME280;17570;0.000;0.000;2023-02-04T09:22:37;96429.88;;;12.25;42.76
30856;BME280;17570;0.000;0.000;2023-02-04T09:25:04;96435.08;;;12.25;43.22
30856;BME280;17570;0.000;0.000;2023-02-04T09:27:34;96432.48;;;12.25;43.09
30856;BME280;17570;0.000;0.000;2023-02-04T09:30:01;96421.09;;;12.26;43.33
30856;BME280;17570;0.000;0.000;2023-02-04T09:32:29;96423.70;;;12.26;43.63
30856;BME280;17570;0.000;0.000;2023-02-04T09:34:56;96418.80;;;12.23;43.39
30856;BME280;17570;0.000;0.000;2023-02-04T09:37:24;96411.81;;;12.23;43.62
30856;BME280;17570;0.000;0.000;2023-02-04T09:39:52;96414.57;;;12.22;43.38
30856;BME280;17570;0.000;0.000;2023-02-04T09:42:20;96409.75;;;12.27;43.57
30856;BME280;17570;0.000;0.000;2023-02-04T09:44:49;96401.78;;;12.29;43.16
30856;BME280;17570;0.000;0.000;2023-02-04T09:47:16;96404.55;;;12.27;42.94
30856;BME280;17570;0.000;0.000;2023-02-04T09:49:44;96394.58;;;12.22;43.20
30856;BME280;17570;0.000;0.000;2023-02-04T09:52:13;96391.66;;;12.25;43.67
30856;BME280;17570;0.000;0.000;2023-02-04T09:54:41;96387.14;;;12.28;43.46
30856;BME280;17570;0.000;0.000;2023-02-04T09:57:20;96386.33;;;12.27;43.75
30856;BME280;17570;0.000;0.000;2023-02-04T09:59:44;96380.31;;;12.27;44.04
30856;BME280;17570;0.000;0.000;2023-02-04T10:02:22;96373.60;;;12.24;44.36
30856;BME280;17570;0.000;0.000;2023-02-04T10:04:50;96375.23;;;12.25;43.86
30856;BME280;17570;0.000;0.000;2023-02-04T10:07:19;96369.21;;;12.24;44.07
30856;BME280;17570;0.000;0.000;2023-02-04T10:09:50;96369.23;;;12.42;45.65
30856;BME280;17570;0.000;0.000;2023-02-04T10:12:18;96354.92;;;12.82;48.68
30856;BME280;17570;0.000;0.000;2023-02-04T10:14:46;96368.09;;;12.98;48.10
30856;BME280;17570;0.000;0.000;2023-02-04T10:17:15;96356.39;;;13.02;47.78
30856;BME280;17570;0.000;0.000;2023-02-04T10:19:44;96347.31;;;13.07;47.41
30856;BME280;17570;0.000;0.000;2023-02-04T10:22:17;96337.02;;;13.05;46.57
30856;BME280;17570;0.000;0.000;2023-02-04T10:24:43;96332.78;;;13.04;45.87
30856;BME280;17570;0.000;0.000;2023-02-04T10:27:11;96331.16;;;13.03;46.11
30856;BME280;17570;0.000;0.000;2023-02-04T10:29:41;96333.77;;;13.03;45.79
30856;BME280;17570;0.000;0.000;2023-02-04T10:35:02;96325.03;;;13.12;44.83
30856;BME280;17570;0.000;0.000;2023-02-04T10:37:26;96323.99;;;13.05;44.77
30856;BME280;17570;0.000;0.000;2023-02-04T10:39:54;96321.91;;;13.09;44.12
30856;BME280;17570;0.000;0.000;2023-02-04T10:42:30;96320.34;;;13.16;43.87
30856;BME280;17570;0.000;0.000;2023-02-04T10:44:54;96315.61;;;13.19;44.31
30856;BME280;17570;0.000;0.000;2023-02-04T10:47:25;96314.14;;;13.17;43.84
30856;BME280;17570;0.000;0.000;2023-02-04T10:49:52;96304.54;;;13.17;43.86
30856;BME280;17570;0.000;0.000;2023-02-04T10:52:21;96301.94;;;13.17;43.64
30856;BME280;17570;0.000;0.000;2023-02-04T10:54:49;96298.81;;;13.14;43.87
30856;BME280;17570;0.000;0.000;2023-02-04T10:57:18;96296.89;;;13.16;44.21
30856;BME280;17570;0.000;0.000;2023-02-04T10:59:46;96291.34;;;13.19;44.57
30856;BME280;17570;0.000;0.000;2023-02-04T11:05:00;96270.83;;;13.16;44.44
30856;BME280;17570;0.000;0.000;2023-02-04T11:07:28;96276.50;;;13.11;44.69
30856;BME280;17570;0.000;0.000;2023-02-04T11:09:56;96276.17;;;13.14;44.47
30856;BME280;17570;0.000;0.000;2023-02-04T11:12:46;96270.50;;;13.19;44.48
30856;BME280;17570;0.000;0.000;2023-02-04T11:14:56;96280.48;;;13.23;44.62
30856;BME280;17570;0.000;0.000;2023-02-04T11:17:30;96287.03;;;13.27;44.95
30856;BME280;17570;0.000;0.000;2023-02-04T11:19:58;96283.61;;;13.27;45.09
30856;BME280;17570;0.000;0.000;2023-02-04T11:22:39;96284.77;;;13.33;45.57
30856;BME280;17570;0.000;0.000;2023-02-04T11:25:28;96281.23;;;13.42;44.58
30856;BME280;17570;0.000;0.000;2023-02-04T11:27:37;96280.25;;;13.43;44.69
30856;BME280;17570;0.000;0.000;2023-02-04T11:30:16;96279.78;;;13.47;44.52
30856;BME280;17570;0.000;0.000;2023-02-04T11:32:35;96280.97;;;13.53;44.04
30856;BME280;17570;0.000;0.000;2023-02-04T11:35:19;96275.63;;;13.63;44.16
30856;BME280;17570;0.000;0.000;2023-02-04T11:37:34;96284.13;;;13.73;44.16
30856;BME280;17570;0.000;0.000;2023-02-04T11:40:49;96280.06;;;13.78;43.27
30856;BME280;17570;0.000;0.000;2023-02-04T11:42:41;96264.13;;;13.90;42.17
30856;BME280;17570;0.000;0.000;2023-02-04T11:45:02;96271.16;;;14.06;42.19
30856;BME280;17570;0.000;0.000;2023-02-04T11:47:33;96264.33;;;14.21;41.00
30856;BME280;17570;0.000;0.000;2023-02-04T11:50:03;96257.52;;;14.52;41.20
30856;BME280;17570;0.000;0.000;2023-02-04T11:52:33;96256.67;;;14.93;40.32
30856;BME280;17570;0.000;0.000;2023-02-04T11:55:00;96250.65;;;15.40;40.52
30856;BME280;17570;0.000;0.000;2023-02-04T11:57:28;96254.22;;;15.86;40.36
30856;BME280;17570;0.000;0.000;2023-02-04T11:59:55;96256.22;;;16.30;40.40
30856;BME280;17570;0.000;0.000;2023-02-04T12:02:23;96247.88;;;16.72;39.85
30856;BME280;17570;0.000;0.000;2023-02-04T12:04:52;96248.91;;;17.01;38.45
30856;BME280;17570;0.000;0.000;2023-02-04T12:07:22;96252.80;;;17.20;37.84
30856;BME280;17570;0.000;0.000;2023-02-04T12:09:50;96254.34;;;17.29;36.72
30856;BME280;17570;0.000;0.000;2023-02-04T12:12:24;96246.31;;;17.30;34.98
30856;BME280;17570;0.000;0.000;2023-02-04T12:15:00;96246.85;;;17.26;34.48
30856;BME280;17570;0.000;0.000;2023-02-04T12:17:26;96253.34;;;17.15;33.13
30856;BME280;17570;0.000;0.000;2023-02-04T12:19:54;96238.95;;;16.96;32.83
30856;BME280;17570;0.000;0.000;2023-02-04T12:22:21;96250.23;;;16.82;32.58
30856;BME280;17570;0.000;0.000;2023-02-04T12:24:49;96248.28;;;16.61;33.34
30856;BME280;17570;0.000;0.000;2023-02-04T12:27:17;96237.86;;;16.53;34.33
30856;BME280;17570;0.000;0.000;2023-02-04T12:29:45;96248.59;;;16.43;33.78
30856;BME280;17570;0.000;0.000;2023-02-04T12:32:12;96238.54;;;16.32;33.90
30856;BME280;17570;0.000;0.000;2023-02-04T12:34:40;96238.22;;;16.27;34.02
30856;BME280;17570;0.000;0.000;2023-02-04T12:37:07;96248.07;;;16.25;34.01
30856;BME280;17570;0.000;0.000;2023-02-04T12:39:35;96246.79;;;16.21;34.31
30856;BME280;17570;0.000;0.000;2023-02-04T12:42:02;96246.50;;;16.16;33.91
30856;BME280;17570;0.000;0.000;2023-02-04T12:44:30;96255.21;;;16.08;34.35
30856;BME280;17570;0.000;0.000;2023-02-04T12:46:57;96249.98;;;16.08;34.05
30856;BME280;17570;0.000;0.000;2023-02-04T12:49:25;96263.95;;;16.00;34.34
30856;BME280;17570;0.000;0.000;2023-02-04T12:51:52;96261.70;;;15.89;35.65
30856;BME280;17570;0.000;0.000;2023-02-04T12:54:21;96257.80;;;15.85;35.38
30856;BME280;17570;0.000;0.000;2023-02-04T12:56:49;96249.54;;;15.73;35.20
30856;BME280;17570;0.000;0.000;2023-02-04T12:59:18;96272.61;;;15.70;35.06
30856;BME280;17570;0.000;0.000;2023-02-04T13:01:45;96266.63;;;15.53;35.29
30856;BME280;17570;0.000;0.000;2023-02-04T13:04:13;96275.42;;;15.52;35.66
30856;BME280;17570;0.000;0.000;2023-02-04T13:06:40;96265.83;;;15.44;35.61
30856;BME280;17570;0.000;0.000;2023-02-04T13:09:08;96266.84;;;15.35;36.79
30856;BME280;17570;0.000;0.000;2023-02-04T13:11:35;96269.17;;;15.22;35.96
30856;BME280;17570;0.000;0.000;2023-02-04T13:14:03;96269.50;;;15.19;36.68
30856;BME280;17570;0.000;0.000;2023-02-04T13:16:30;96267.73;;;15.11;37.19
30856;BME280;17570;0.000;0.000;2023-02-04T13:18:58;96270.85;;;15.07;37.42
30856;BME280;17570;0.000;0.000;2023-02-04T13:21:25;96287.84;;;15.02;37.66
30856;BME280;17570;0.000;0.000;2023-02-04T13:23:53;96284.59;;;14.92;38.37
30856;BME280;17570;0.000;0.000;2023-02-04T13:26:22;96274.16;;;14.84;37.43